Time;durP1;ratioP1;P1;durP2;ratioP2;P2;SDS_P1;SDS_P2;PMS_P1;PMS_P2;Temp;Humidity;BMP_temperature;BMP_pressure;BME280_temperature;BME280_humidity;BME280_pressure;Samples;Min_cycle;Max_cycle;Signal;HPM_P1;HPM_P2
2023/01/20 00:01:11;;;;;;;7.40;3.17;;;3.00;1.00;;;;;;5050772;28;20052;-60
2023/01/20 00:03:38;;;;;;;5.45;2.35;;;2.40;1.00;;;;;;5037348;28;20036;-60
2023/01/20 00:06:04;;;;;;;9.07;2.80;;;2.90;99.90;;;;;;5053010;28;20136;-60
2023/01/20 00:08:29;;;;;;;2.90;2.42;;;2.60;99.90;;;;;;5052831;28;20459;-60
2023/01/20 00:10:55;;;;;;;5.32;2.95;;;2.50;1.00;;;;;;5042286;28;20104;-60
2023/01/20 00:13:21;;;;;;;7.20;3.10;;;2.60;1.00;;;;;;5045567;28;20449;-60
2023/01/20 00:15:47;;;;;;;4.80;2.60;;;2.20;99.90;;;;;;5051068;28;20551;-60
2023/01/20 00:18:13;;;;;;;6.82;2.60;;;2.40;99.90;;;;;;5052951;28;20037;-60
2023/01/20 00:20:38;;;;;;;3.67;2.45;;;2.90;99.90;;;;;;5052914;28;20103;-60
2023/01/20 00:23:04;;;;;;;5.03;2.35;;;3.00;99.90;;;;;;5052763;28;20124;-60
2023/01/20 00:25:30;;;;;;;3.03;2.05;;;2.90;99.90;;;;;;5050649;28;20032;-59
2023/01/20 00:27:55;;;;;;;2.80;1.90;;;2.90;99.90;;;;;;5041207;28;20076;-59
2023/01/20 00:30:21;;;;;;;3.97;2.10;;;3.00;99.90;;;;;;5032784;28;20391;-60
2023/01/20 00:32:46;;;;;;;3.47;2.33;;;2.80;99.90;;;;;;5041554;28;20071;-60
2023/01/20 00:35:12;;;;;;;2.58;2.08;;;2.80;99.90;;;;;;5050351;28;20036;-60
2023/01/20 00:37:38;;;;;;;5.40;2.13;;;2.80;99.90;;;;;;5052866;28;20033;-60
2023/01/20 00:40:05;;;;;;;3.50;1.70;;;2.70;99.90;;;;;;5052693;28;20045;-60
2023/01/20 00:42:31;;;;;;;2.83;1.92;;;2.50;99.90;;;;;;5042302;28;20041;-60
2023/01/20 00:44:56;;;;;;;5.30;2.10;;;2.30;99.90;;;;;;5040961;28;20052;-60
2023/01/20 00:47:22;;;;;;;2.97;1.73;;;2.30;2.80;;;;;;5052408;28;20048;-60
2023/01/20 00:49:48;;;;;;;3.08;2.00;;;2.60;1.00;;;;;;5052468;28;20037;-60
2023/01/20 00:52:14;;;;;;;3.10;1.70;;;2.80;95.20;;;;;;5052330;28;20489;-59
2023/01/20 00:54:39;;;;;;;2.40;1.70;;;2.80;21.20;;;;;;5051448;28;20260;-60
2023/01/20 00:57:05;;;;;;;6.55;1.90;;;2.70;30.80;;;;;;5042213;28;20034;-60
2023/01/20 00:59:31;;;;;;;2.70;1.52;;;2.70;2.20;;;;;;5032761;28;20095;-60
2023/01/20 01:01:56;;;;;;;7.90;1.90;;;2.40;1.00;;;;;;5033838;28;20116;-60
2023/01/20 01:04:22;;;;;;;83.00;5.43;;;2.60;1.00;;;;;;5049992;28;20037;-60
2023/01/20 01:06:50;;;;;;;3.55;1.90;;;2.70;9.40;;;;;;5051943;28;20045;-60
2023/01/20 01:09:16;;;;;;;4.45;2.17;;;3.10;99.90;;;;;;5052166;28;20079;-60
2023/01/20 01:11:42;;;;;;;4.20;1.83;;;2.80;99.90;;;;;;5044691;28;20073;-60
2023/01/20 01:14:07;;;;;;;4.13;1.83;;;2.60;99.90;;;;;;5033295;28;20109;-60
2023/01/20 01:16:33;;;;;;;3.65;1.70;;;2.70;99.90;;;;;;5052047;28;20392;-60
2023/01/20 01:18:58;;;;;;;4.28;1.83;;;2.90;8.90;;;;;;5052033;28;20025;-60
2023/01/20 01:21:24;;;;;;;2.75;1.77;;;2.70;21.20;;;;;;5052029;28;20040;-60
2023/01/20 01:23:51;;;;;;;3.67;1.98;;;2.80;1.00;;;;;;5051729;28;20041;-60
2023/01/20 01:26:17;;;;;;;4.90;1.83;;;2.70;1.00;;;;;;5052623;28;20043;-60
2023/01/20 01:28:45;;;;;;;3.05;1.70;;;2.80;1.00;;;;;;5035058;28;20037;-60
2023/01/20 01:31:11;;;;;;;4.78;2.15;;;2.60;1.00;;;;;;5032056;28;20049;-60
2023/01/20 01:33:37;;;;;;;2.17;1.60;;;2.70;1.00;;;;;;5046761;28;20033;-60
2023/01/20 01:36:03;;;;;;;2.97;2.00;;;2.70;1.00;;;;;;5048444;28;20048;-60
2023/01/20 01:38:30;;;;;;;5.40;1.70;;;2.50;99.90;;;;;;5051742;28;20049;-60
2023/01/20 01:40:56;;;;;;;4.28;2.05;;;2.20;1.00;;;;;;5051949;28;20498;-60
2023/01/20 01:43:30;;;;;;;4.22;1.88;;;2.20;1.00;;;;;;5039423;28;20064;-60
2023/01/20 01:45:56;;;;;;;5.45;2.15;;;2.20;99.90;;;;;;5050436;28;20114;-60
2023/01/20 01:48:34;;;;;;;4.07;2.42;;;2.00;1.00;;;;;;5048335;28;20104;-60
2023/01/20 01:51:05;;;;;;;4.90;1.70;;;1.80;99.90;;;;;;5051606;28;20029;-60
2023/01/20 01:53:38;;;;;;;6.22;2.03;;;1.70;99.90;;;;;;5052171;28;20040;-59
2023/01/20 01:56:04;;;;;;;5.22;2.10;;;2.00;99.90;;;;;;5055558;28;20029;-60
2023/01/20 01:58:35;;;;;;;5.15;2.20;;;1.60;99.90;;;;;;5055333;28;20076;-60
2023/01/20 02:01:00;;;;;;;4.28;2.10;;;1.60;99.90;;;;;;5046370;28;20041;-60
2023/01/20 02:03:34;;;;;;;3.88;2.20;;;1.80;1.00;;;;;;5049658;28;20052;-60
2023/01/20 02:06:00;;;;;;;8.05;2.72;;;2.10;1.00;;;;;;5053869;28;20106;-60
2023/01/20 02:08:26;;;;;;;3.22;2.25;;;2.40;1.00;;;;;;5049936;28;20050;-59
2023/01/20 02:10:51;;;;;;;3.47;2.30;;;2.00;1.00;;;;;;5048119;28;20113;-60
2023/01/20 02:13:17;;;;;;;2.33;2.05;;;2.30;1.00;;;;;;5054566;28;20086;-60
2023/01/20 02:15:58;;;;;;;4.93;2.85;;;2.40;1.00;;;;;;5053145;28;20044;-60
2023/01/20 02:18:37;;;;;;;2.42;2.17;;;2.40;1.00;;;;;;5055465;28;20529;-60
2023/01/20 02:21:40;;;;;;;4.20;2.63;;;1.80;1.00;;;;;;5055055;28;20041;-60
2023/01/20 02:24:25;;;;;;;8.13;2.85;;;1.80;31.30;;;;;;5055013;28;20493;-60
2023/01/20 02:27:12;;;;;;;3.83;3.00;;;2.40;99.90;;;;;;5042048;28;20044;-61
2023/01/20 02:29:46;;;;;;;4.30;2.50;;;2.20;99.90;;;;;;5054983;28;20096;-60
2023/01/20 02:32:17;;;;;;;5.10;3.13;;;2.20;99.90;;;;;;5055038;28;20033;-60
2023/01/20 02:34:53;;;;;;;3.55;3.03;;;1.80;99.90;;;;;;5051666;28;20059;-60
2023/01/20 02:37:27;;;;;;;5.53;3.33;;;2.30;99.90;;;;;;5044359;28;20112;-60
2023/01/20 02:40:10;;;;;;;8.98;3.80;;;2.40;99.90;;;;;;5053396;28;20040;-60
2023/01/20 02:42:40;;;;;;;8.38;4.30;;;1.70;99.90;;;;;;5053647;28;20044;-60
2023/01/20 02:45:20;;;;;;;7.18;4.40;;;1.90;99.90;;;;;;5054086;28;20410;-60
2023/01/20 02:47:55;;;;;;;6.40;4.47;;;1.70;99.90;;;;;;5054287;28;20045;-60
2023/01/20 02:50:39;;;;;;;7.10;4.55;;;1.70;99.90;;;;;;5052497;28;20545;-60
2023/01/20 02:53:06;;;;;;;7.30;4.22;;;2.10;99.90;;;;;;5053526;28;20049;-59
2023/01/20 02:55:43;;;;;;;7.03;4.30;;;2.00;1.00;;;;;;5053689;28;20048;-60
2023/01/20 02:58:26;;;;;;;9.30;5.13;;;1.80;1.00;;;;;;5052672;28;20044;-60
2023/01/20 03:01:12;;;;;;;7.40;5.00;;;1.60;1.00;;;;;;5053156;28;20041;-60
2023/01/20 03:03:41;;;;;;;6.90;4.78;;;2.10;1.00;;;;;;5047717;28;20049;-60
2023/01/20 03:06:13;;;;;;;8.30;4.93;;;1.80;22.80;;;;;;5034827;28;20065;-60
2023/01/20 03:08:39;;;;;;;9.73;4.75;;;1.90;64.50;;;;;;5051214;28;20091;-60
2023/01/20 03:11:07;;;;;;;8.43;4.85;;;2.60;99.90;;;;;;5054265;28;20448;-60
2023/01/20 03:14:00;;;;;;;6.25;4.22;;;1.80;99.90;;;;;;5053035;28;20611;-60
2023/01/20 03:16:27;;;;;;;6.75;4.50;;;1.80;99.90;;;;;;5052331;28;20037;-60
2023/01/20 03:18:54;;;;;;;9.10;4.63;;;2.00;99.90;;;;;;5052129;28;20045;-60
2023/01/20 03:21:20;;;;;;;11.70;4.65;;;2.60;99.90;;;;;;5054238;28;20052;-60
2023/01/20 03:23:52;;;;;;;8.07;4.72;;;1.90;99.90;;;;;;5053957;28;20116;-60
2023/01/20 03:26:21;;;;;;;9.27;5.55;;;2.50;99.90;;;;;;5052634;28;20064;-60
2023/01/20 03:28:48;;;;;;;11.30;6.85;;;2.60;99.90;;;;;;5053613;28;20037;-60
2023/01/20 03:31:21;;;;;;;9.98;6.13;;;2.70;99.90;;;;;;5053807;28;20107;-60
2023/01/20 03:33:49;;;;;;;8.52;6.28;;;2.20;1.00;;;;;;5042406;28;20033;-60
2023/01/20 03:36:15;;;;;;;7.18;5.97;;;2.80;1.00;;;;;;5052308;28;20044;-60
2023/01/20 03:38:43;;;;;;;9.60;6.50;;;2.60;1.00;;;;;;5053678;28;20510;-60
2023/01/20 03:41:46;;;;;;;12.27;8.32;;;2.70;1.00;;;;;;5053615;28;20052;-59
2023/01/20 03:44:37;;;;;;;14.23;9.57;;;2.80;1.00;;;;;;5053389;28;20166;-60
2023/01/20 03:47:14;;;;;;;18.25;11.30;;;1.90;43.20;;;;;;5050770;28;20049;-60
2023/01/20 03:49:51;;;;;;;10.10;7.20;;;2.00;99.90;;;;;;5033603;28;20076;-60
2023/01/20 03:52:44;;;;;;;13.73;9.15;;;3.10;99.90;;;;;;5033553;28;20116;-60
2023/01/20 03:55:20;;;;;;;10.57;8.63;;;2.60;99.90;;;;;;5033506;28;20116;-60
2023/01/20 03:58:02;;;;;;;15.48;10.38;;;3.10;99.90;;;;;;5046832;28;20041;-60
2023/01/20 04:00:32;;;;;;;11.30;8.55;;;3.40;1.00;;;;;;5050837;28;20029;-60
2023/01/20 04:03:00;;;;;;;13.13;9.40;;;2.60;1.00;;;;;;5042505;28;20060;-59
2023/01/20 04:05:27;;;;;;;15.05;10.60;;;3.20;42.90;;;;;;5033368;28;20041;-60
2023/01/20 04:07:56;;;;;;;16.80;11.95;;;2.40;99.90;;;;;;5031985;28;20041;-60
2023/01/20 04:10:25;;;;;;;12.65;9.90;;;2.80;99.90;;;;;;5041825;28;20033;-59
2023/01/20 04:12:50;;;;;;;13.75;9.48;;;3.00;99.90;;;;;;5052033;28;20052;-60
2023/01/20 04:15:18;;;;;;;14.38;10.60;;;3.50;99.90;;;;;;5052711;28;20094;-60
2023/01/20 04:17:44;;;;;;;15.00;10.73;;;3.10;1.00;;;;;;5052488;28;20048;-60
2023/01/20 04:20:12;;;;;;;16.63;11.63;;;2.50;1.00;;;;;;5051052;28;20242;-60
2023/01/20 04:22:47;;;;;;;15.07;11.07;;;2.40;1.00;;;;;;5052909;28;20505;-60
2023/01/20 04:25:21;;;;;;;15.23;11.43;;;3.40;1.00;;;;;;5034922;28;20592;-60
2023/01/20 04:27:46;;;;;;;16.30;13.45;;;2.80;13.20;;;;;;5051091;28;20115;-60
2023/01/20 04:30:13;;;;;;;18.75;13.10;;;2.80;72.20;;;;;;5051712;28;20147;-60
2023/01/20 04:32:38;;;;;;;17.77;13.52;;;3.40;99.10;;;;;;5041634;28;20029;-60
2023/01/20 04:35:04;;;;;;;21.75;13.88;;;3.20;99.90;;;;;;5044743;28;20078;-60
2023/01/20 04:37:30;;;;;;;23.25;16.33;;;2.50;99.90;;;;;;5052625;28;20037;-61
2023/01/20 04:39:55;;;;;;;18.60;12.00;;;2.50;99.90;;;;;;5051768;28;20141;-60
2023/01/20 04:42:21;;;;;;;19.90;12.25;;;2.40;99.90;;;;;;5052494;28;20047;-60
2023/01/20 04:44:46;;;;;;;16.52;10.75;;;3.60;99.90;;;;;;5052205;28;20037;-60
2023/01/20 04:47:12;;;;;;;15.88;11.70;;;3.10;99.90;;;;;;5050419;28;20048;-60
2023/01/20 04:49:37;;;;;;;15.35;10.90;;;2.30;99.90;;;;;;5051871;28;20032;-60
2023/01/20 04:52:03;;;;;;;15.57;10.65;;;2.80;1.00;;;;;;5052472;28;20120;-60
2023/01/20 04:54:29;;;;;;;15.88;10.50;;;2.40;1.00;;;;;;5052111;28;20041;-60
2023/01/20 04:56:54;;;;;;;15.25;10.88;;;3.00;1.00;;;;;;5048048;28;20434;-60
2023/01/20 04:59:20;;;;;;;14.88;10.30;;;2.40;21.50;;;;;;5050801;28;20041;-60
2023/01/20 05:01:45;;;;;;;14.60;9.73;;;3.00;99.90;;;;;;5042336;28;20136;-59
2023/01/20 05:04:11;;;;;;;12.18;9.13;;;3.50;99.90;;;;;;5032236;28;20065;-60
2023/01/20 05:06:37;;;;;;;11.75;8.77;;;3.60;99.90;;;;;;5032062;28;20080;-60
2023/01/20 05:09:03;;;;;;;16.42;10.15;;;3.60;99.90;;;;;;5064318;28;20041;-59
2023/01/20 05:11:28;;;;;;;12.43;10.00;;;2.70;99.90;;;;;;5047716;28;20033;-60
2023/01/20 05:13:54;;;;;;;16.48;9.43;;;2.70;99.90;;;;;;5039235;28;20125;-60
2023/01/20 05:16:22;;;;;;;14.95;9.98;;;3.30;1.00;;;;;;5048523;28;20044;-60
2023/01/20 05:18:48;;;;;;;14.65;10.05;;;3.30;1.00;;;;;;5051890;28;20076;-60
2023/01/20 05:21:14;;;;;;;14.23;10.25;;;2.70;1.00;;;;;;5052178;28;20033;-60
2023/01/20 05:23:40;;;;;;;14.82;11.05;;;2.50;99.90;;;;;;5051545;28;20106;-60
2023/01/20 05:26:05;;;;;;;16.17;11.75;;;2.40;99.90;;;;;;5051100;28;20120;-60
2023/01/20 05:28:31;;;;;;;20.80;14.02;;;2.70;99.90;;;;;;5035138;28;20041;-60
2023/01/20 05:30:56;;;;;;;21.95;13.93;;;3.00;99.90;;;;;;5032203;28;20081;-60
2023/01/20 05:33:22;;;;;;;21.80;14.77;;;2.60;99.90;;;;;;5032192;28;20034;-60
2023/01/20 05:35:47;;;;;;;24.33;14.57;;;2.30;99.90;;;;;;5048042;28;20032;-59
2023/01/20 05:38:13;;;;;;;18.67;11.02;;;3.20;99.90;;;;;;5051438;28;20090;-59
2023/01/20 05:40:39;;;;;;;14.05;9.82;;;2.80;99.90;;;;;;5049992;28;20041;-60
2023/01/20 05:43:04;;;;;;;17.30;11.50;;;3.20;99.90;;;;;;5042915;28;20104;-60
2023/01/20 05:45:31;;;;;;;18.00;11.30;;;2.40;99.90;;;;;;5031707;28;20042;-60
2023/01/20 05:47:58;;;;;;;20.02;13.23;;;2.60;99.90;;;;;;5031802;28;20395;-60
2023/01/20 05:50:24;;;;;;;24.33;13.75;;;2.70;99.90;;;;;;5046524;28;20191;-60
2023/01/20 05:52:50;;;;;;;26.50;16.95;;;2.80;99.90;;;;;;5050805;28;20505;-60
2023/01/20 05:55:16;;;;;;;21.75;14.05;;;2.30;99.90;;;;;;5051515;28;20036;-60
2023/01/20 05:57:42;;;;;;;24.30;16.60;;;2.60;99.90;;;;;;5041502;28;20116;-60
2023/01/20 06:00:08;;;;;;;35.40;18.65;;;3.20;99.90;;;;;;5051115;28;20048;-61
2023/01/20 06:02:34;;;;;;;29.70;17.52;;;3.10;1.00;;;;;;5051855;28;20037;-60
2023/01/20 06:05:00;;;;;;;39.20;21.98;;;3.20;1.00;;;;;;5049321;28;20037;-60
2023/01/20 06:07:28;;;;;;;57.05;31.42;;;2.60;1.00;;;;;;5051423;28;20049;-60
2023/01/20 06:09:53;;;;;;;64.05;34.67;;;2.20;62.00;;;;;;5050795;28;20041;-60
2023/01/20 06:12:19;;;;;;;70.78;35.60;;;2.30;99.90;;;;;;5049785;28;20095;-60
2023/01/20 06:14:45;;;;;;;60.88;32.47;;;3.50;99.90;;;;;;5048947;28;20407;-59
2023/01/20 06:17:10;;;;;;;45.17;26.10;;;3.60;1.00;;;;;;5051557;28;20043;-60
2023/01/20 06:19:36;;;;;;;52.65;27.52;;;3.80;1.00;;;;;;5051609;28;20048;-60
2023/01/20 06:22:01;;;;;;;54.08;27.38;;;4.10;99.90;;;;;;5050790;28;20045;-60
2023/01/20 06:24:27;;;;;;;46.83;25.23;;;3.00;99.90;;;;;;5050252;28;20052;-60
2023/01/20 06:26:52;;;;;;;47.13;28.25;;;3.50;1.00;;;;;;5043275;28;21178;-60
2023/01/20 06:29:18;;;;;;;49.67;26.98;;;4.40;23.70;;;;;;5050938;28;20041;-60
2023/01/20 06:31:44;;;;;;;51.55;27.67;;;4.10;99.90;;;;;;5053852;28;20106;-60
2023/01/20 06:34:10;;;;;;;54.17;29.88;;;4.30;99.90;;;;;;5054243;28;20381;-60
2023/01/20 06:36:36;;;;;;;51.90;28.58;;;3.00;1.00;;;;;;5054898;28;20061;-59
2023/01/20 06:39:01;;;;;;;47.22;26.88;;;3.50;1.00;;;;;;5054342;28;20118;-60
2023/01/20 06:41:27;;;;;;;45.78;24.73;;;3.90;83.70;;;;;;5053938;28;20028;-59
2023/01/20 06:43:53;;;;;;;71.82;39.95;;;3.50;99.90;;;;;;5054560;28;20060;-61
2023/01/20 06:46:18;;;;;;;64.05;35.08;;;4.00;99.90;;;;;;5054740;28;20029;-61
2023/01/20 06:48:45;;;;;;;80.43;42.30;;;4.50;99.90;;;;;;5053779;28;20064;-60
2023/01/20 06:51:15;;;;;;;60.97;35.00;;;3.10;99.90;;;;;;5054668;28;20036;-60
2023/01/20 06:53:41;;;;;;;58.28;31.63;;;3.40;99.90;;;;;;5052248;28;20048;-60
2023/01/20 06:56:10;;;;;;;61.25;34.42;;;4.30;99.90;;;;;;5035357;28;20041;-61
2023/01/20 06:58:35;;;;;;;61.15;34.80;;;4.80;99.90;;;;;;5045718;28;20090;-61
2023/01/20 07:01:29;;;;;;;53.13;29.67;;;3.30;99.90;;;;;;5054227;28;20044;-60
2023/01/20 07:03:55;;;;;;;49.22;28.05;;;4.50;99.90;;;;;;5049566;28;20053;-60
2023/01/20 07:06:23;;;;;;;44.20;24.88;;;4.30;99.90;;;;;;5049214;28;20095;-61
2023/01/20 07:08:49;;;;;;;43.83;24.83;;;3.50;99.90;;;;;;4988888;28;20045;-61
2023/01/20 07:11:14;;;;;;;51.13;30.55;;;4.80;99.90;;;;;;5031644;28;20092;-60
2023/01/20 07:13:40;;;;;;;50.28;29.45;;;4.80;99.90;;;;;;5029696;28;20121;-60
2023/01/20 07:16:06;;;;;;;60.53;34.92;;;4.20;99.90;;;;;;5033652;28;20041;-60
2023/01/20 07:18:32;;;;;;;65.00;35.35;;;4.70;99.90;;;;;;5033825;28;20140;-61
2023/01/20 07:20:57;;;;;;;52.05;31.02;;;3.40;99.90;;;;;;5034575;28;20120;-60
2023/01/20 07:23:23;;;;;;;53.65;33.53;;;3.90;99.90;;;;;;5028949;28;20050;-60
2023/01/20 07:26:10;;;;;;;56.95;33.22;;;4.20;99.90;;;;;;5032413;28;20063;-60
2023/01/20 07:28:35;;;;;;;;;;;3.60;99.90;;;;;;5032324;28;20136;-60
2023/01/20 07:31:06;;;;;;;56.47;30.50;;;4.70;99.90;;;;;;5033786;28;20349;-60
2023/01/20 07:33:32;;;;;;;55.22;34.00;;;4.10;99.90;;;;;;5031718;28;20041;-60
2023/01/20 07:35:58;;;;;;;61.85;35.95;;;3.40;99.90;;;;;;5033495;28;20137;-60
2023/01/20 07:38:23;;;;;;;61.83;35.08;;;3.40;99.90;;;;;;5033368;28;20491;-60
2023/01/20 07:40:49;;;;;;;51.42;32.33;;;3.80;99.90;;;;;;5033715;28;20038;-60
2023/01/20 07:43:14;;;;;;;59.65;33.85;;;3.30;99.90;;;;;;5033033;28;20037;-60
2023/01/20 07:45:40;;;;;;;54.30;33.28;;;4.80;99.90;;;;;;5027093;28;20057;-60
2023/01/20 07:48:06;;;;;;;60.05;37.15;;;3.80;99.90;;;;;;5030237;28;20495;-60
2023/01/20 07:50:36;;;;;;;64.90;37.15;;;4.80;99.90;;;;;;5028577;28;20041;-60
2023/01/20 07:53:03;;;;;;;55.47;31.67;;;3.40;99.90;;;;;;5024757;28;20045;-60
2023/01/20 07:55:28;;;;;;;61.92;36.38;;;4.10;99.90;;;;;;5031852;28;20594;-60
2023/01/20 07:57:55;;;;;;;56.47;34.97;;;4.60;99.90;;;;;;5030027;28;20045;-60
2023/01/20 08:00:20;;;;;;;67.68;38.58;;;3.70;99.90;;;;;;5029564;28;20087;-60
2023/01/20 08:02:46;;;;;;;58.35;37.28;;;4.80;99.90;;;;;;5027635;28;20041;-60
2023/01/20 08:05:12;;;;;;;66.35;38.08;;;4.50;99.90;;;;;;5030965;28;20045;-60
2023/01/20 08:07:37;;;;;;;58.75;34.03;;;4.30;99.90;;;;;;5028379;28;20042;-60
2023/01/20 08:10:03;;;;;;;59.20;32.83;;;3.70;99.90;;;;;;5027414;28;20052;-60
2023/01/20 08:12:29;;;;;;;54.38;33.15;;;3.60;99.90;;;;;;5026382;28;20500;-60
2023/01/20 08:14:55;;;;;;;50.33;28.23;;;4.70;99.90;;;;;;5032658;28;20033;-61
2023/01/20 08:17:21;;;;;;;67.53;39.22;;;4.20;99.90;;;;;;5029572;28;20379;-60
2023/01/20 08:19:46;;;;;;;59.53;34.58;;;4.00;99.90;;;;;;5030357;28;20483;-60
2023/01/20 08:22:12;;;;;;;62.10;35.17;;;5.00;99.90;;;;;;5027605;28;20126;-60
2023/01/20 08:24:37;;;;;;;56.42;32.88;;;4.20;99.90;;;;;;5032977;28;20049;-60
2023/01/20 08:27:03;;;;;;;62.67;34.03;;;4.60;99.90;;;;;;5031975;28;20061;-60
2023/01/20 08:29:30;;;;;;;60.17;34.15;;;3.80;99.90;;;;;;5027341;28;20786;-60
2023/01/20 08:32:00;;;;;;;61.17;34.60;;;5.10;99.90;;;;;;5032699;28;20034;-60
2023/01/20 08:34:27;;;;;;;78.28;43.95;;;4.90;99.90;;;;;;5028310;28;20083;-60
2023/01/20 08:36:56;;;;;;;61.58;33.05;;;3.90;99.90;;;;;;5028170;28;20033;-60
2023/01/20 08:39:22;;;;;;;84.95;44.33;;;4.60;99.90;;;;;;5029729;28;20120;-60
2023/01/20 08:41:48;;;;;;;76.10;42.20;;;3.40;99.90;;;;;;5025757;28;20060;-60
2023/01/20 08:44:15;;;;;;;80.55;41.83;;;4.70;99.90;;;;;;5026599;28;20518;-60
2023/01/20 08:46:42;;;;;;;60.92;32.28;;;3.70;99.90;;;;;;5028196;28;20536;-60
2023/01/20 08:49:16;;;;;;;59.45;30.48;;;3.60;99.90;;;;;;5031584;28;20029;-60
2023/01/20 08:51:43;;;;;;;61.10;30.17;;;4.40;99.90;;;;;;5029196;28;20116;-60
2023/01/20 08:54:09;;;;;;;70.22;35.00;;;4.50;99.90;;;;;;5028702;28;20083;-60
2023/01/20 08:56:35;;;;;;;64.22;35.35;;;3.50;99.90;;;;;;5026042;28;20371;-60
2023/01/20 08:59:02;;;;;;;71.05;34.20;;;3.20;99.90;;;;;;5028692;28;20134;-60
2023/01/20 09:01:29;;;;;;;74.30;37.90;;;4.50;99.90;;;;;;5026231;28;20155;-60
2023/01/20 09:03:56;;;;;;;87.63;45.75;;;3.80;99.90;;;;;;5025977;28;20388;-60
2023/01/20 09:06:22;;;;;;;86.82;43.75;;;4.60;99.90;;;;;;5028694;28;20572;-60
2023/01/20 09:08:49;;;;;;;76.80;34.90;;;3.40;99.90;;;;;;5031736;28;20049;-60
2023/01/20 09:11:18;;;;;;;76.05;37.88;;;3.10;99.90;;;;;;5030657;28;20045;-60
2023/01/20 09:13:44;;;;;;;75.78;35.33;;;3.40;99.90;;;;;;5023114;28;20048;-61
2023/01/20 09:16:11;;;;;;;88.38;41.72;;;4.10;99.90;;;;;;5036903;28;20033;-60
2023/01/20 09:18:37;;;;;;;72.30;32.33;;;3.50;99.90;;;;;;5031771;28;20037;-61
2023/01/20 09:21:06;;;;;;;64.63;31.38;;;4.60;99.90;;;;;;5029790;28;20046;-62
2023/01/20 09:23:33;;;;;;;73.22;34.80;;;4.40;99.90;;;;;;5030830;28;20040;-61
2023/01/20 09:25:59;;;;;;;66.53;32.72;;;3.40;99.90;;;;;;5025575;28;20045;-61
2023/01/20 09:28:25;;;;;;;71.68;36.38;;;3.90;99.90;;;;;;5025347;28;20127;-61
2023/01/20 09:31:06;;;;;;;73.50;33.22;;;4.50;99.90;;;;;;5026813;28;20120;-61
2023/01/20 09:33:35;;;;;;;82.03;38.90;;;4.50;99.90;;;;;;5025565;28;20569;-61
2023/01/20 09:36:01;;;;;;;73.30;33.60;;;3.40;99.90;;;;;;5028661;28;20041;-60
2023/01/20 09:44:27;;;;;;;85.10;41.65;;;4.50;99.90;;;;;;5027473;28;20038;-61
2023/01/20 09:47:20;;;;;;;85.40;38.38;;;4.00;99.90;;;;;;5038134;28;20063;-60
2023/01/20 09:55:26;;;;;;;89.03;40.13;;;3.50;99.90;;;;;;5028645;28;20406;-60
2023/01/20 09:58:07;;;;;;;82.18;39.92;;;3.60;99.90;;;;;;5031249;28;20095;-60
2023/01/20 10:00:34;;;;;;;76.78;38.58;;;3.40;99.90;;;;;;5031638;28;20145;-61
2023/01/20 10:03:25;;;;;;;79.72;34.70;;;4.10;99.90;;;;;;5031257;28;20050;-60
2023/01/20 10:05:54;;;;;;;79.15;36.88;;;4.80;99.90;;;;;;5025576;28;20038;-60
2023/01/20 10:08:35;;;;;;;97.28;46.13;;;3.80;99.90;;;;;;5018964;28;20120;-60
2023/01/20 10:11:12;;;;;;;90.93;45.42;;;3.50;99.90;;;;;;5033939;28;20547;-60
2023/01/20 10:13:58;;;;;;;77.03;34.90;;;4.40;99.90;;;;;;5034860;28;20111;-60
2023/01/20 10:16:47;;;;;;;78.85;37.92;;;3.70;99.90;;;;;;5035052;28;20042;-60
2023/01/20 10:19:44;;;;;;;87.50;42.90;;;4.90;99.90;;;;;;5007404;28;20503;-60
2023/01/20 10:22:15;;;;;;;82.93;39.90;;;4.00;99.90;;;;;;5032588;28;20514;-60
2023/01/20 10:24:57;;;;;;;92.80;42.75;;;4.00;99.90;;;;;;5034620;28;20033;-60
2023/01/20 10:27:26;;;;;;;95.22;41.38;;;3.50;99.90;;;;;;5034001;28;20042;-60
2023/01/20 10:30:01;;;;;;;88.10;42.00;;;3.80;99.90;;;;;;5036385;28;20056;-60
2023/01/20 10:32:32;;;;;;;82.20;37.78;;;4.90;99.90;;;;;;5033868;28;20064;-60
2023/01/20 10:35:16;;;;;;;76.18;34.85;;;4.20;99.90;;;;;;5045887;28;20037;-60
2023/01/20 10:37:42;;;;;;;69.20;31.63;;;3.40;99.90;;;;;;5035416;28;20056;-60
2023/01/20 10:40:24;;;;;;;78.60;33.10;;;3.50;99.90;;;;;;5030546;28;20479;-60
2023/01/20 10:42:57;;;;;;;72.68;32.92;;;3.80;99.90;;;;;;5040821;28;20045;-60
2023/01/20 10:45:47;;;;;;;86.38;41.08;;;4.10;99.90;;;;;;5034006;28;20045;-61
2023/01/20 10:48:34;;;;;;;94.43;43.03;;;4.80;99.90;;;;;;5034757;28;20128;-60
2023/01/20 10:51:30;;;;;;;75.82;32.50;;;4.20;99.90;;;;;;5032361;28;20045;-60
2023/01/20 10:54:09;;;;;;;81.25;37.17;;;4.80;99.90;;;;;;5046401;28;20045;-60
2023/01/20 10:57:03;;;;;;;80.40;36.22;;;3.60;99.90;;;;;;5045808;28;20052;-60
2023/01/20 10:59:40;;;;;;;80.25;37.25;;;3.80;99.90;;;;;;5028361;28;20081;-60
2023/01/20 11:02:17;;;;;;;72.95;33.00;;;4.30;99.90;;;;;;5033710;28;20037;-60
2023/01/20 11:04:44;;;;;;;76.13;34.95;;;4.80;99.90;;;;;;5031744;28;20495;-60
2023/01/20 11:07:16;;;;;;;87.30;43.22;;;3.60;99.90;;;;;;5018054;28;20450;-60
2023/01/20 11:09:42;;;;;;;79.70;38.47;;;3.60;99.90;;;;;;5035071;28;20587;-60
2023/01/20 11:12:17;;;;;;;58.45;29.45;;;4.50;99.90;;;;;;5029945;28;20045;-60
2023/01/20 11:14:44;;;;;;;65.38;30.52;;;4.40;99.90;;;;;;5037229;28;20491;-60
2023/01/20 11:17:19;;;;;;;71.75;35.17;;;4.20;99.90;;;;;;5031222;28;20068;-60
2023/01/20 11:19:52;;;;;;;58.70;27.38;;;4.60;99.90;;;;;;5029640;28;20049;-60
2023/01/20 11:22:30;;;;;;;66.30;30.65;;;4.10;99.90;;;;;;5024091;28;20064;-59
2023/01/20 11:24:58;;;;;;;67.65;30.02;;;3.60;99.90;;;;;;5027847;28;20045;-59
2023/01/20 11:27:42;;;;;;;61.40;29.55;;;5.00;99.90;;;;;;5032073;28;20041;-60
2023/01/20 11:30:24;;;;;;;68.88;34.72;;;4.40;99.90;;;;;;5029307;28;20479;-60
2023/01/20 11:33:07;;;;;;;65.90;30.73;;;4.10;99.90;;;;;;5023902;28;20436;-60
2023/01/20 11:35:32;;;;;;;107.80;32.13;;;4.70;99.90;;;;;;5028956;28;20029;-62
2023/01/20 11:38:19;;;;;;;72.47;32.63;;;4.70;99.90;;;;;;5032470;28;20060;-60
2023/01/20 11:40:54;;;;;;;62.03;29.85;;;3.70;99.90;;;;;;5050062;28;20064;-60
2023/01/20 11:43:34;;;;;;;50.72;25.02;;;5.00;99.90;;;;;;5029870;28;20040;-61
2023/01/20 11:46:11;;;;;;;45.15;25.63;;;4.60;99.90;;;;;;5031144;28;20072;-60
2023/01/20 11:48:37;;;;;;;65.57;31.85;;;4.40;99.90;;;;;;5042890;28;20038;-60
2023/01/20 11:51:03;;;;;;;52.40;27.77;;;5.00;99.90;;;;;;5033082;28;20513;-60
2023/01/20 11:53:30;;;;;;;59.55;30.90;;;3.90;99.90;;;;;;5032162;28;20033;-60
2023/01/20 11:56:02;;;;;;;51.25;26.10;;;4.40;99.90;;;;;;5033319;28;20041;-61
2023/01/20 11:58:32;;;;;;;61.80;29.50;;;4.10;99.90;;;;;;5032213;28;20120;-60
2023/01/20 12:00:59;;;;;;;54.70;27.45;;;4.10;99.90;;;;;;5032160;28;20077;-61
2023/01/20 12:03:43;;;;;;;59.10;27.90;;;4.60;99.90;;;;;;5052427;28;20547;-61
2023/01/20 12:06:20;;;;;;;54.55;25.65;;;5.00;99.90;;;;;;5053140;28;20068;-61
2023/01/20 12:09:00;;;;;;;54.55;28.52;;;4.80;99.90;;;;;;5031749;28;20060;-60
2023/01/20 12:11:31;;;;;;;58.90;31.48;;;4.70;99.90;;;;;;5031932;28;20042;-60
2023/01/20 12:14:24;;;;;;;48.20;25.48;;;4.70;99.90;;;;;;5023725;28;20040;-60
2023/01/20 12:17:13;;;;;;;57.78;31.13;;;4.90;99.90;;;;;;5033249;28;20132;-60
2023/01/20 12:19:50;;;;;;;48.80;25.00;;;4.20;99.90;;;;;;5047850;28;20506;-60
2023/01/20 12:22:42;;;;;;;49.13;25.67;;;3.90;99.90;;;;;;5067616;28;20140;-61
2023/01/20 12:25:18;;;;;;;53.35;28.83;;;4.80;99.90;;;;;;5030821;28;20037;-61
2023/01/20 12:27:51;;;;;;;53.05;29.15;;;5.10;99.90;;;;;;5011914;28;20125;-59
2023/01/20 12:30:30;;;;;;;54.95;31.80;;;3.90;99.90;;;;;;5025707;28;20530;-60
2023/01/20 12:32:56;;;;;;;57.67;30.73;;;4.90;99.90;;;;;;5032977;28;20058;-60
2023/01/20 12:35:25;;;;;;;62.85;25.52;;;4.70;99.90;;;;;;5032463;28;20025;-60
2023/01/20 12:37:53;;;;;;;50.67;27.67;;;4.10;99.90;;;;;;5033016;28;20052;-61
2023/01/20 12:40:36;;;;;;;63.38;33.20;;;5.10;99.90;;;;;;5031482;28;20049;-60
2023/01/20 12:43:50;;;;;;;61.88;33.10;;;4.20;99.90;;;;;;5025471;28;20041;-60
2023/01/20 12:46:31;;;;;;;59.22;32.90;;;5.00;99.90;;;;;;4981815;28;20050;-60
2023/01/20 12:49:20;;;;;;;71.72;35.33;;;4.80;99.90;;;;;;5027461;28;20152;-61
2023/01/20 12:52:09;;;;;;;58.40;28.85;;;4.30;99.90;;;;;;5031072;28;20097;-61
2023/01/20 12:54:53;;;;;;;58.17;28.85;;;5.00;99.90;;;;;;5031093;28;20507;-60
2023/01/20 12:57:46;;;;;;;52.25;26.85;;;3.90;99.90;;;;;;5028401;28;20033;-64
2023/01/20 13:00:11;;;;;;;59.60;30.60;;;4.90;99.90;;;;;;5031240;28;20041;-61
2023/01/20 13:03:16;;;;;;;61.42;26.77;;;4.90;99.90;;;;;;5032458;28;20053;-61
2023/01/20 13:05:54;;;;;;;66.63;33.78;;;4.50;99.90;;;;;;5031984;28;20069;-60
2023/01/20 13:08:59;;;;;;;65.95;33.47;;;4.80;99.90;;;;;;5032353;28;20052;-62
2023/01/20 13:11:46;;;;;;;58.80;31.13;;;4.40;99.90;;;;;;5031163;28;20491;-60
2023/01/20 13:14:40;;;;;;;69.43;35.33;;;4.80;99.90;;;;;;5030775;28;20049;-60
2023/01/20 13:17:18;;;;;;;66.55;31.77;;;5.10;99.90;;;;;;5028394;28;20069;-60